Time;durP1;ratioP1;P1;durP2;ratioP2;P2;SDS_P1;SDS_P2;PMS_P1;PMS_P2;Temp;Humidity;BMP_temperature;BMP_pressure;BME280_temperature;BME280_humidity;BME280_pressure;Samples;Min_cycle;Max_cycle;Signal;HPM_P1;HPM_P2
2022/05/03 00:01:52;;;;;;;9.57;9.07;;;;;;;7.89;93.68;92594.91;5070732;28;20256;-84
2022/05/03 00:04:17;;;;;;;10.13;9.63;;;;;;;7.74;92.24;92597.53;5071176;28;20178;-89
2022/05/03 00:06:55;;;;;;;11.03;10.43;;;;;;;7.94;93.85;92601.91;5071961;28;20233;-86
2022/05/03 00:09:43;;;;;;;10.47;9.87;;;;;;;7.72;92.55;92591.03;5072283;28;20836;-87
2022/05/03 00:12:12;;;;;;;10.83;10.33;;;;;;;7.78;93.85;92597.78;5082488;28;20224;-89
2022/05/03 00:14:49;;;;;;;11.27;10.60;;;;;;;7.89;93.61;92586.34;5073649;28;20193;-88
2022/05/03 00:17:15;;;;;;;10.80;10.20;;;;;;;7.68;93.08;92588.16;5079915;28;20274;-88
2022/05/03 00:19:43;;;;;;;11.40;10.60;;;;;;;7.82;92.51;92585.81;5067185;28;20175;-89
2022/05/03 00:22:12;;;;;;;11.07;10.43;;;;;;;7.88;94.23;92590.75;5068706;28;20225;-86
2022/05/03 00:24:38;;;;;;;10.33;9.73;;;;;;;7.73;93.51;92588.19;5069045;28;20212;-88
2022/05/03 00:27:04;;;;;;;11.03;10.43;;;;;;;7.83;93.75;92585.56;5072717;28;21376;-88
2022/05/03 00:29:32;;;;;;;11.60;10.97;;;;;;;7.73;93.98;92577.00;5088902;28;20208;-88
2022/05/03 00:31:59;;;;;;;10.93;10.20;;;;;;;7.89;94.48;92591.53;5073382;28;20248;-85
2022/05/03 00:34:26;;;;;;;10.50;9.90;;;;;;;7.71;94.56;92587.66;5090815;28;20203;-89
2022/05/03 00:36:52;;;;;;;9.50;9.00;;;;;;;7.59;94.16;92545.59;5067790;28;20277;-87
2022/05/03 00:39:17;;;;;;;10.37;9.63;;;;;;;7.97;93.02;92576.19;5073363;28;20216;-89
2022/05/03 00:42:01;;;;;;;11.63;10.93;;;;;;;7.74;92.94;92576.72;5074428;28;20241;-89
2022/05/03 00:45:01;;;;;;;10.50;10.00;;;;;;;7.90;94.11;92591.28;5069424;28;20194;-88
2022/05/03 00:47:35;;;;;;;10.00;9.30;;;;;;;7.70;94.40;92580.91;5065549;28;20241;-87
2022/05/03 00:50:15;;;;;;;11.60;10.83;;;;;;;7.84;94.37;92586.34;5069168;28;20223;-88
2022/05/03 00:52:51;;;;;;;11.43;10.83;;;;;;;7.88;93.28;92580.34;5064210;28;20290;-89
2022/05/03 00:55:39;;;;;;;10.70;10.10;;;;;;;7.88;94.15;92585.56;5068010;28;20186;-89
2022/05/03 00:58:15;;;;;;;10.93;10.33;;;;;;;7.79;94.49;92574.13;5058175;28;20240;-87
2022/05/03 01:01:00;;;;;;;9.43;8.93;;;;;;;7.73;93.96;92582.97;5071900;28;20217;-87
2022/05/03 01:03:33;;;;;;;9.67;9.20;;;;;;;7.40;93.60;92562.72;5060575;28;20197;-88
2022/05/03 01:06:56;;;;;;;10.43;9.87;;;;;;;7.50;93.19;92574.94;5070154;28;20304;-88
2022/05/03 01:09:41;;;;;;;10.63;10.13;;;;;;;7.65;94.76;92574.91;5006159;28;20242;-88
2022/05/03 01:12:40;;;;;;;10.80;10.23;;;;;;;7.44;93.61;92563.75;5008636;28;20862;-90
2022/05/03 01:15:10;;;;;;;9.87;9.47;;;;;;;7.40;93.47;92554.94;5057777;28;20266;-90
2022/05/03 01:17:45;;;;;;;9.90;9.40;;;;;;;7.60;93.62;92570.50;5073750;28;20284;-88
2022/05/03 01:20:22;;;;;;;10.73;10.23;;;;;;;7.27;93.89;92558.03;5071296;28;20177;-87
2022/05/03 01:23:22;;;;;;;10.10;9.70;;;;;;;7.41;94.44;92566.13;5051075;28;20233;-89
2022/05/03 01:26:18;;;;;;;10.03;9.47;;;;;;;7.22;95.52;92557.28;5051904;28;20229;-90
2022/05/03 01:29:14;;;;;;;9.93;9.43;;;;;;;7.35;94.39;92560.13;5052122;28;20262;-89
2022/05/03 01:31:39;;;;;;;8.90;8.50;;;;;;;7.43;93.03;92564.81;5039023;28;20271;-89
2022/05/03 01:34:06;;;;;;;10.20;9.70;;;;;;;7.45;93.53;92552.34;5052416;28;20189;-83
2022/05/03 01:36:50;;;;;;;10.23;9.57;;;;;;;7.56;93.41;92564.28;5059342;28;20232;-89
2022/05/03 01:39:36;;;;;;;10.77;10.27;;;;;;;7.45;91.26;92547.16;5066823;28;20193;-89
2022/05/03 01:42:40;;;;;;;11.47;10.77;;;;;;;7.26;92.53;92548.69;5064660;28;20228;-89
2022/05/03 01:45:10;;;;;;;10.43;9.93;;;;;;;6.84;94.17;92496.25;5075463;28;20188;-84
2022/05/03 01:47:48;;;;;;;10.70;10.17;;;;;;;7.18;94.49;92533.63;5087179;28;20315;-89
2022/05/03 01:50:37;;;;;;;10.70;10.10;;;;;;;7.19;93.33;92526.63;5077215;28;20209;-89
2022/05/03 01:53:21;;;;;;;11.20;10.57;;;;;;;7.26;93.41;92535.72;5071059;28;20222;-92
2022/05/03 01:56:18;;;;;;;10.90;10.30;;;;;;;7.18;92.87;92525.06;5058423;28;20198;-89
2022/05/03 01:59:11;;;;;;;11.63;10.93;;;;;;;7.31;94.51;92546.13;5014775;28;20221;-90
2022/05/03 02:01:45;;;;;;;10.50;9.63;;;;;;;7.31;94.55;92545.31;5052425;28;20226;-86
2022/05/03 02:04:22;;;;;;;11.50;10.70;;;;;;;7.19;93.78;92531.81;5047711;28;20198;-89
2022/05/03 02:07:11;;;;;;;10.57;9.87;;;;;;;7.27;94.14;92536.50;5067226;28;20252;-89
2022/05/03 02:09:43;;;;;;;10.13;9.63;;;;;;;7.42;93.57;92539.88;5075816;28;20216;-88
2022/05/03 02:12:15;;;;;;;11.27;10.63;;;;;;;7.30;93.92;92528.19;5073937;28;20301;-89
2022/05/03 02:14:51;;;;;;;11.63;11.03;;;;;;;7.18;93.05;92528.44;5066618;28;20186;-89
2022/05/03 02:17:25;;;;;;;9.90;9.30;;;;;;;7.29;94.01;92524.03;5073075;28;20829;-88
2022/05/03 02:20:36;;;;;;;10.20;9.60;;;;;;;7.32;94.30;92526.09;5075435;28;20264;-89
2022/05/03 02:23:36;;;;;;;10.50;10.00;;;;;;;7.48;94.05;92530.25;5044247;28;20232;-88
2022/05/03 02:26:11;;;;;;;10.43;9.83;;;;;;;7.42;93.92;92532.09;5071485;28;20244;-89
2022/05/03 02:28:53;;;;;;;9.50;8.80;;;;;;;7.32;93.92;92518.31;5073411;28;20201;-87
2022/05/03 02:31:26;;;;;;;9.90;9.40;;;;;;;7.28;93.73;92519.88;5072275;28;20231;-86
2022/05/03 02:34:21;;;;;;;10.00;9.50;;;;;;;7.32;94.64;92511.31;5079340;28;20252;-86
2022/05/03 02:37:09;;;;;;;9.77;9.27;;;;;;;7.25;93.29;92504.81;5064141;28;20249;-89
2022/05/03 02:39:43;;;;;;;9.70;9.30;;;;;;;7.07;93.58;92503.53;5069344;28;20207;-89
2022/05/03 02:42:09;;;;;;;11.40;10.40;;;;;;;7.17;94.47;92513.13;5058170;28;20683;-89
2022/05/03 02:44:38;;;;;;;10.57;9.93;;;;;;;7.30;94.63;92513.38;5057104;28;20190;-87
2022/05/03 02:47:13;;;;;;;10.37;9.87;;;;;;;7.47;93.32;92513.88;5055939;28;20226;-89
2022/05/03 02:49:50;;;;;;;10.03;9.53;;;;;;;7.50;93.69;92510.00;5056941;28;20212;-86
2022/05/03 02:52:28;;;;;;;9.30;8.90;;;;;;;7.54;93.22;92509.22;5066974;28;20237;-89
2022/05/03 02:55:08;;;;;;;10.00;9.47;;;;;;;7.69;93.30;92516.97;5075488;28;20278;-89
2022/05/03 02:58:05;;;;;;;9.47;9.07;;;;;;;7.63;93.88;92515.44;5073091;28;20228;-86
2022/05/03 03:03:39;;;;;;;10.20;9.70;;;;;;;7.50;93.41;92510.75;5075475;28;20216;-88
2022/05/03 03:06:05;;;;;;;9.27;8.87;;;;;;;7.42;92.22;92500.94;5065979;28;20217;-88
2022/05/03 03:08:43;;;;;;;10.47;9.97;;;;;;;7.39;93.61;92493.63;5072744;28;20248;-88
2022/05/03 03:11:32;;;;;;;10.00;9.50;;;;;;;7.51;93.94;92499.34;5074931;28;20235;-89
2022/05/03 03:14:00;;;;;;;9.70;9.20;;;;;;;7.69;92.26;92511.78;5063345;28;20289;-89
2022/05/03 03:16:33;;;;;;;10.37;9.87;;;;;;;7.72;90.72;92513.84;5066796;28;20233;-88
2022/05/03 03:19:05;;;;;;;10.33;9.83;;;;;;;7.64;92.48;92514.38;5069966;28;20216;-88
2022/05/03 03:21:34;;;;;;;10.33;9.73;;;;;;;7.75;92.22;92515.91;5061901;28;20236;-89
2022/05/03 03:24:00;;;;;;;10.53;9.93;;;;;;;7.79;90.58;92513.59;5071835;28;20189;-89
2022/05/03 03:26:29;;;;;;;10.90;10.30;;;;;;;7.88;90.79;92517.19;5071643;28;20256;-87
2022/05/03 03:28:58;;;;;;;11.37;10.67;;;;;;;7.84;89.98;92514.34;5068723;28;20249;-87
2022/05/03 03:31:25;;;;;;;10.00;9.50;;;;;;;7.93;89.70;92517.97;5071476;28;20233;-89
2022/05/03 03:33:53;;;;;;;9.57;9.07;;;;;;;7.87;90.11;92523.44;5068331;28;20217;-88
2022/05/03 03:36:20;;;;;;;9.87;9.37;;;;;;;7.91;90.53;92524.47;5058971;28;20249;-89
2022/05/03 03:38:49;;;;;;;10.77;10.17;;;;;;;7.82;90.87;92518.25;5069188;28;20208;-89
2022/05/03 03:41:15;;;;;;;9.20;8.77;;;;;;;7.78;90.51;92520.59;5071128;28;20263;-84
2022/05/03 03:43:40;;;;;;;10.87;10.33;;;;;;;7.69;90.85;92518.78;5069249;28;20193;-89
2022/05/03 03:46:07;;;;;;;11.03;10.30;;;;;;;7.85;90.27;92520.31;5067225;28;20241;-87
2022/05/03 03:48:33;;;;;;;11.47;10.87;;;;;;;7.67;90.60;92497.50;5065281;28;20177;-88
2022/05/03 03:51:00;;;;;;;11.23;10.60;;;;;;;7.81;91.60;92530.44;5069227;28;20244;-82
2022/05/03 03:53:26;;;;;;;10.43;9.83;;;;;;;7.77;90.68;92513.84;5061294;28;20198;-87
2022/05/03 03:55:51;;;;;;;10.83;10.33;;;;;;;7.78;90.31;92512.03;5066915;28;20193;-87
2022/05/03 03:58:18;;;;;;;10.47;9.97;;;;;;;7.71;91.34;92509.69;5064322;28;20478;-87
2022/05/03 04:00:45;;;;;;;10.03;9.53;;;;;;;7.81;91.38;92524.50;5070393;28;20206;-87
2022/05/03 04:03:11;;;;;;;11.87;11.17;;;;;;;7.81;91.71;92530.44;5055500;28;20189;-86
2022/05/03 04:05:38;;;;;;;9.93;9.43;;;;;;;7.90;91.18;92530.72;5071055;28;20192;-86
2022/05/03 04:08:03;;;;;;;10.23;9.63;;;;;;;7.93;90.69;92536.16;5055549;28;20178;-84
2022/05/03 04:10:29;;;;;;;10.57;9.87;;;;;;;7.86;90.46;92516.69;5056403;28;20209;-87
2022/05/03 04:12:54;;;;;;;10.97;10.37;;;;;;;8.02;90.13;92531.19;5070903;28;20833;-88
2022/05/03 04:15:20;;;;;;;12.00;11.30;;;;;;;8.04;89.72;92526.50;5074181;28;20213;-88
2022/05/03 04:17:45;;;;;;;9.77;9.27;;;;;;;8.04;89.93;92536.91;5072585;28;20225;-88
2022/05/03 04:20:18;;;;;;;10.40;9.83;;;;;;;8.17;89.88;92534.53;5074376;28;20194;-86
2022/05/03 04:22:44;;;;;;;10.60;9.90;;;;;;;8.20;89.87;92549.59;5054169;28;20222;-86
2022/05/03 04:25:10;;;;;;;12.07;11.27;;;;;;;8.17;90.34;92547.53;5055219;28;20190;-88
2022/05/03 04:27:36;;;;;;;11.10;10.43;;;;;;;8.21;90.59;92545.19;5050287;28;20251;-85
2022/05/03 04:30:03;;;;;;;11.33;10.53;;;;;;;8.27;92.03;92551.16;5054709;28;20752;-85
2022/05/03 04:32:30;;;;;;;11.20;10.40;;;;;;;8.32;91.43;92548.53;5053131;28;20246;-87
2022/05/03 04:34:56;;;;;;;11.83;10.83;;;;;;;8.33;91.28;92550.13;5054765;28;20194;-88
2022/05/03 04:37:21;;;;;;;11.57;10.80;;;;;;;8.40;90.05;92537.59;5059130;28;20225;-87
2022/05/03 04:39:47;;;;;;;10.77;10.13;;;;;;;8.43;89.44;92532.66;5063132;28;20196;-87
2022/05/03 04:42:13;;;;;;;10.60;9.97;;;;;;;8.50;89.99;92542.78;5073686;28;20225;-88
2022/05/03 04:44:38;;;;;;;11.57;10.87;;;;;;;8.45;90.21;92550.59;5075563;28;20212;-87
2022/05/03 04:47:05;;;;;;;10.43;9.93;;;;;;;8.57;89.74;92543.25;5084522;28;20224;-87
2022/05/03 04:49:30;;;;;;;11.03;10.43;;;;;;;8.47;90.92;92544.06;5070736;28;20205;-85
2022/05/03 04:51:56;;;;;;;12.40;11.60;;;;;;;8.48;90.35;92550.84;5057532;28;20236;-88
2022/05/03 04:54:21;;;;;;;10.77;10.17;;;;;;;8.66;89.58;92547.63;5050001;28;20302;-88
2022/05/03 04:56:53;;;;;;;10.90;10.30;;;;;;;8.69;87.87;92541.09;5059942;28;20260;-88
2022/05/03 04:59:18;;;;;;;10.50;9.90;;;;;;;8.31;89.51;92545.19;5066432;28;20253;-89
2022/05/03 05:01:44;;;;;;;11.43;10.73;;;;;;;8.52;89.05;92549.25;5087498;28;20209;-89
2022/05/03 05:04:09;;;;;;;11.40;10.60;;;;;;;8.54;88.23;92522.97;5073508;28;20220;-89
2022/05/03 05:06:35;;;;;;;10.67;10.07;;;;;;;8.67;87.42;92549.16;5070079;28;20304;-90
2022/05/03 05:09:00;;;;;;;10.40;9.90;;;;;;;8.65;87.68;92550.50;5056330;28;20186;-88
2022/05/03 05:11:26;;;;;;;10.03;9.43;;;;;;;8.65;88.09;92555.69;5070618;28;20233;-89
2022/05/03 05:13:51;;;;;;;10.77;10.17;;;;;;;8.43;86.74;92531.84;5060722;28;20190;-90
2022/05/03 05:16:17;;;;;;;10.20;9.60;;;;;;;8.43;86.98;92550.06;5065528;28;20228;-89
2022/05/03 05:18:43;;;;;;;10.53;9.97;;;;;;;8.68;85.64;92550.75;5072642;28;20197;-90
2022/05/03 05:21:10;;;;;;;11.00;10.50;;;;;;;8.41;87.86;92546.94;5070618;28;20231;-89
2022/05/03 05:23:35;;;;;;;10.03;9.50;;;;;;;8.25;86.50;92535.81;5061853;28;20687;-89
2022/05/03 05:26:02;;;;;;;11.73;10.53;;;;;;;8.43;87.74;92557.88;5067772;28;20275;-91
2022/05/03 05:28:28;;;;;;;10.30;9.80;;;;;;;8.20;88.31;92541.03;5069814;28;20195;-87
2022/05/03 05:30:53;;;;;;;9.53;9.03;;;;;;;8.57;86.25;92532.84;5073213;28;20224;-92
2022/05/03 05:33:20;;;;;;;10.47;9.97;;;;;;;8.66;84.32;92557.25;5069814;28;20232;-90
2022/05/03 05:35:46;;;;;;;11.03;10.53;;;;;;;8.88;84.36;92562.88;5068283;28;20196;-89
2022/05/03 05:38:16;;;;;;;11.57;10.90;;;;;;;9.14;84.51;92559.06;5069748;28;20173;-90
2022/05/03 05:40:42;;;;;;;10.70;10.10;;;;;;;9.06;83.03;92555.19;5068295;28;20188;-88
2022/05/03 05:43:08;;;;;;;10.50;9.90;;;;;;;9.31;82.55;92564.66;5069114;28;20249;-90
2022/05/03 05:45:33;;;;;;;10.30;9.70;;;;;;;9.46;81.95;92567.94;5070688;28;20204;-89
2022/05/03 05:47:59;;;;;;;10.13;9.50;;;;;;;9.21;83.20;92564.75;5070109;28;20209;-85
2022/05/03 05:50:25;;;;;;;10.33;9.63;;;;;;;9.20;83.38;92566.56;5067823;28;20213;-90
2022/05/03 05:55:36;;;;;;;9.07;8.67;;;;;;;9.25;83.27;92570.97;5067107;28;20197;-85
2022/05/03 05:58:03;;;;;;;10.33;9.73;;;;;;;10.00;79.42;92570.38;5068538;28;20223;-89
2022/05/03 06:00:29;;;;;;;10.30;9.50;;;;;;;10.07;78.58;92568.22;5067334;28;20197;-89
2022/05/03 06:02:55;;;;;;;12.50;11.70;;;;;;;10.18;79.63;92576.75;5052770;28;20225;-90
2022/05/03 06:05:20;;;;;;;9.70;9.20;;;;;;;10.21;77.86;92569.13;5050211;28;20277;-89
2022/05/03 06:07:46;;;;;;;9.80;9.30;;;;;;;9.95;78.75;92559.19;5067276;28;20221;-85
2022/05/03 06:10:11;;;;;;;9.20;8.70;;;;;;;10.45;76.53;92569.13;5071805;28;20217;-90
2022/05/03 06:12:36;;;;;;;9.53;9.00;;;;;;;10.09;76.57;92588.81;5070830;28;20225;-88
2022/05/03 06:15:02;;;;;;;9.70;9.30;;;;;;;10.18;76.06;92595.78;5066500;28;20201;-89
2022/05/03 06:17:28;;;;;;;10.13;9.63;;;;;;;10.27;72.44;92581.09;5072771;28;20237;-88
2022/05/03 06:19:53;;;;;;;10.20;9.70;;;;;;;10.31;73.58;92583.91;5068945;28;20189;-88
2022/05/03 06:22:20;;;;;;;9.43;8.93;;;;;;;10.27;73.48;92599.34;5064945;28;20233;-90
2022/05/03 06:24:47;;;;;;;10.23;9.63;;;;;;;10.61;73.85;92600.03;5068788;28;20197;-90
2022/05/03 06:27:16;;;;;;;10.77;10.17;;;;;;;10.66;73.36;92602.56;5072956;28;20232;-89
2022/05/03 06:29:42;;;;;;;8.37;8.00;;;;;;;11.22;70.38;92600.81;5069937;28;20221;-89
2022/05/03 06:32:10;;;;;;;10.00;9.40;;;;;;;11.68;67.77;92610.66;5065913;28;20234;-89
2022/05/03 06:34:37;;;;;;;9.53;9.13;;;;;;;11.91;67.56;92604.53;5076842;28;20189;-88
2022/05/03 06:37:03;;;;;;;9.67;9.27;;;;;;;12.11;65.30;92619.94;5072797;28;20229;-88
2022/05/03 06:39:29;;;;;;;9.57;9.03;;;;;;;12.13;67.11;92617.78;5074593;28;20181;-90
2022/05/03 06:41:54;;;;;;;8.53;8.13;;;;;;;12.20;64.98;92620.81;5074667;28;20235;-89
2022/05/03 06:44:20;;;;;;;8.93;8.53;;;;;;;11.89;65.14;92627.59;5072940;28;20197;-89
2022/05/03 06:46:45;;;;;;;7.90;7.60;;;;;;;11.61;65.16;92636.38;5058048;28;20236;-86
2022/05/03 06:49:11;;;;;;;10.57;9.97;;;;;;;11.48;67.82;92629.22;5054548;28;20202;-89
2022/05/03 06:51:37;;;;;;;9.60;9.20;;;;;;;11.52;69.02;92630.22;5052200;28;20229;-89
2022/05/03 06:54:02;;;;;;;10.20;9.57;;;;;;;11.76;69.03;92638.78;5056512;28;20220;-89
2022/05/03 06:56:30;;;;;;;9.73;9.13;;;;;;;11.54;68.54;92628.88;5051278;28;20237;-90
2022/05/03 06:58:56;;;;;;;10.40;9.80;;;;;;;11.75;69.65;92639.84;5052850;28;20249;-91
2022/05/03 07:01:21;;;;;;;9.57;9.03;;;;;;;12.15;68.14;92639.22;5055572;28;20252;-89
2022/05/03 07:03:46;;;;;;;9.53;9.00;;;;;;;12.30;66.36;92633.72;5052563;28;20182;-91
2022/05/03 07:06:12;;;;;;;16.47;13.27;;;;;;;12.70;66.59;92625.91;5060506;28;20226;-89
2022/05/03 07:08:38;;;;;;;16.63;13.20;;;;;;;12.98;65.82;92630.09;5077122;28;20185;-91
2022/05/03 07:11:04;;;;;;;9.73;9.23;;;;;;;13.24;63.40;92646.13;5071031;28;20226;-88
2022/05/03 07:13:30;;;;;;;9.70;9.27;;;;;;;12.87;63.27;92627.97;5065688;28;20205;-91
2022/05/03 07:15:57;;;;;;;9.27;8.73;;;;;;;12.86;64.53;92642.13;5070911;28;20232;-89
2022/05/03 07:23:52;;;;;;;10.63;10.03;;;;;;;12.37;68.79;92642.00;5068550;28;20209;-91
2022/05/03 07:26:18;;;;;;;9.60;9.00;;;;;;;12.59;65.58;92642.13;5055138;28;20708;-91
2022/05/03 07:28:47;;;;;;;9.60;9.00;;;;;;;12.44;65.81;92647.63;5069439;28;20220;-90
2022/05/03 07:31:13;;;;;;;9.97;9.27;;;;;;;12.28;67.17;92649.72;5071331;28;20222;-88
2022/05/03 07:33:39;;;;;;;10.00;9.30;;;;;;;11.90;69.08;92642.22;5076112;28;20242;-88
2022/05/03 07:36:05;;;;;;;9.57;8.63;;;;;;;11.54;70.57;92633.31;5086788;28;20225;-90
2022/05/03 07:38:30;;;;;;;9.90;9.27;;;;;;;11.48;71.79;92645.69;5074104;28;20193;-90
2022/05/03 07:40:56;;;;;;;12.17;11.37;;;;;;;11.98;68.63;92646.81;5072723;28;20281;-84
2022/05/03 07:43:23;;;;;;;12.40;11.60;;;;;;;12.22;66.53;92657.94;5072081;28;20277;-92
2022/05/03 07:45:48;;;;;;;11.20;10.53;;;;;;;12.78;64.87;92664.53;5087510;28;20279;-90
2022/05/03 07:48:14;;;;;;;11.30;10.53;;;;;;;13.04;63.18;92662.28;5066354;28;20193;-91
2022/05/03 07:50:39;;;;;;;10.53;9.93;;;;;;;12.69;62.24;92671.53;5074699;28;20209;-90
2022/05/03 07:53:05;;;;;;;10.63;10.03;;;;;;;12.55;64.30;92668.09;5050869;28;20305;-90
2022/05/03 07:55:30;;;;;;;10.23;9.73;;;;;;;12.28;63.85;92664.66;5051915;28;20182;-91
2022/05/03 07:57:56;;;;;;;11.30;10.60;;;;;;;11.89;66.33;92674.69;5050875;28;20508;-86
2022/05/03 08:00:21;;;;;;;10.40;9.80;;;;;;;11.78;66.76;92662.81;5064237;28;20690;-89
2022/05/03 08:02:47;;;;;;;9.97;9.47;;;;;;;11.35;67.62;92652.41;5076242;28;20233;-88
2022/05/03 08:05:12;;;;;;;10.17;9.67;;;;;;;11.20;70.12;92665.66;5075364;28;20194;-85
2022/05/03 08:07:38;;;;;;;11.20;10.43;;;;;;;11.15;71.81;92670.94;5070798;28;20226;-91
2022/05/03 08:10:04;;;;;;;15.43;13.83;;;;;;;11.28;73.52;92670.25;5072474;28;20209;-92
2022/05/03 08:12:30;;;;;;;10.67;9.97;;;;;;;11.62;72.64;92662.22;5074372;28;20225;-91
2022/05/03 08:14:56;;;;;;;12.03;11.13;;;;;;;11.74;73.31;92667.84;5075088;28;20188;-90
2022/05/03 08:17:27;;;;;;;10.93;10.13;;;;;;;12.07;69.76;92679.13;5075489;28;20247;-89
2022/05/03 08:19:53;;;;;;;9.73;9.13;;;;;;;12.06;70.21;92686.19;5081081;28;20200;-85
2022/05/03 08:22:18;;;;;;;9.87;9.33;;;;;;;11.98;71.18;92683.44;5059480;28;20702;-89
2022/05/03 08:24:43;;;;;;;9.57;9.13;;;;;;;11.79;72.49;92687.91;5071817;28;20186;-88
2022/05/03 08:27:09;;;;;;;10.37;9.77;;;;;;;11.55;75.02;92676.72;5067364;28;20229;-91
2022/05/03 08:29:34;;;;;;;9.87;9.47;;;;;;;11.49;74.13;92668.16;5071155;28;20221;-90
2022/05/03 08:32:01;;;;;;;9.43;8.93;;;;;;;11.94;72.57;92691.06;5067223;28;20298;-86
2022/05/03 08:34:26;;;;;;;9.57;9.17;;;;;;;12.07;72.53;92686.97;5075039;28;20206;-91
2022/05/03 08:42:21;;;;;;;9.70;9.30;;;;;;;12.59;69.51;92691.88;5062368;28;20265;-91
2022/05/03 08:44:46;;;;;;;11.73;11.03;;;;;;;12.61;67.42;92700.22;5069792;28;20203;-92
2022/05/03 08:47:14;;;;;;;10.77;10.17;;;;;;;12.19;68.37;92693.31;5064742;28;20385;-92
2022/05/03 08:49:44;;;;;;;9.23;8.80;;;;;;;12.06;67.97;92701.88;5069420;28;20219;-89
2022/05/03 08:52:11;;;;;;;10.03;9.53;;;;;;;11.84;67.60;92690.44;5067774;28;20230;-92
2022/05/03 08:54:38;;;;;;;9.80;9.30;;;;;;;11.80;66.85;92690.22;5070288;28;20190;-88
2022/05/03 08:57:07;;;;;;;9.57;8.97;;;;;;;11.73;67.70;92700.28;5071279;28;20254;-91
2022/05/03 08:59:34;;;;;;;10.63;10.03;;;;;;;11.91;68.28;92696.09;5060854;28;20200;-92
2022/05/03 09:02:00;;;;;;;9.27;8.73;;;;;;;12.21;67.67;92695.66;5073683;28;20252;-85
2022/05/03 09:04:25;;;;;;;8.60;8.20;;;;;;;12.14;67.17;92688.16;5070720;28;20199;-91
2022/05/03 09:06:51;;;;;;;8.57;8.17;;;;;;;12.28;68.37;92701.31;5073738;28;20222;-92
2022/05/03 09:09:20;;;;;;;8.33;7.93;;;;;;;12.62;67.85;92701.78;5069917;28;20195;-91
2022/05/03 09:11:50;;;;;;;9.40;8.90;;;;;;;12.51;67.12;92700.41;5070298;28;20320;-90
2022/05/03 09:14:39;;;;;;;8.23;7.63;;;;;;;12.06;68.48;92685.41;5068889;28;20193;-91
2022/05/03 09:17:06;;;;;;;9.40;9.00;;;;;;;12.11;69.09;92693.19;5059813;28;20359;-88
2022/05/03 09:19:32;;;;;;;8.27;7.97;;;;;;;11.86;70.34;92704.03;5050014;28;20199;-93
2022/05/03 09:25:01;;;;;;;8.60;8.27;;;;;;;12.34;69.56;92705.41;5071463;28;20228;-91
2022/05/03 09:27:27;;;;;;;9.00;8.50;;;;;;;12.63;67.32;92703.31;5070121;28;20225;-89
2022/05/03 09:30:08;;;;;;;8.00;7.70;;;;;;;12.86;67.35;92707.63;5070186;28;20206;-84
2022/05/03 09:32:41;;;;;;;7.77;7.37;;;;;;;12.85;65.63;92706.09;5080700;28;20236;-89
2022/05/03 09:35:33;;;;;;;9.33;8.87;;;;;;;12.57;66.09;92699.25;5074733;28;20221;-93
2022/05/03 09:38:04;;;;;;;8.93;8.53;;;;;;;12.43;67.17;92687.97;5072724;28;20213;-90
2022/05/03 09:40:49;;;;;;;8.13;7.83;;;;;;;12.01;65.63;92698.56;5071162;28;20193;-90
2022/05/03 09:43:16;;;;;;;8.80;8.40;;;;;;;12.31;66.97;92700.72;5073776;28;20227;-89
2022/05/03 09:45:42;;;;;;;9.53;9.03;;;;;;;12.44;67.49;92695.53;5073839;28;20185;-91
2022/05/03 09:48:07;;;;;;;10.97;10.27;;;;;;;12.98;64.50;92705.31;5069981;28;20217;-90
2022/05/03 09:50:37;;;;;;;13.10;11.90;;;;;;;12.84;63.92;92704.53;5063462;28;20216;-88
2022/05/03 09:53:17;;;;;;;10.80;9.90;;;;;;;13.87;60.35;92690.69;5057118;28;20248;-92
2022/05/03 09:55:45;;;;;;;9.10;8.70;;;;;;;13.95;56.25;92709.16;5048020;28;20186;-91
2022/05/03 09:58:12;;;;;;;9.27;8.87;;;;;;;13.50;61.85;92702.22;5049891;28;20190;-91
2022/05/03 10:00:40;;;;;;;9.27;8.73;;;;;;;13.40;61.99;92697.19;5046205;28;20186;-90
2022/05/03 10:03:07;;;;;;;9.73;9.23;;;;;;;13.81;57.42;92692.66;5053504;28;20430;-91
2022/05/03 10:05:34;;;;;;;9.03;8.63;;;;;;;13.69;59.19;92692.41;5053568;28;20221;-90
2022/05/03 10:08:00;;;;;;;7.73;7.43;;;;;;;13.15;60.30;92710.81;5073303;28;20252;-89
2022/05/03 10:10:26;;;;;;;8.73;8.33;;;;;;;12.69;62.54;92699.56;5072839;28;20546;-87
2022/05/03 10:12:56;;;;;;;8.53;8.13;;;;;;;12.65;62.78;92685.50;5077396;28;20288;-87
2022/05/03 10:21:03;;;;;;;9.77;9.37;;;;;;;11.84;62.82;92685.22;5065376;28;20305;-88
2022/05/03 10:23:33;;;;;;;11.47;10.50;;;;;;;12.27;61.13;92674.34;5073360;28;20258;-84
2022/05/03 10:26:09;;;;;;;10.33;9.80;;;;;;;12.36;60.68;92675.22;5064707;28;20259;-89
2022/05/03 10:29:07;;;;;;;9.77;9.27;;;;;;;12.14;59.62;92696.00;5070520;28;20189;-88
2022/05/03 10:32:03;;;;;;;8.10;7.80;;;;;;;12.18;62.92;92686.53;5062759;28;20324;-87
2022/05/03 10:34:48;;;;;;;7.93;7.63;;;;;;;12.96;57.71;92696.97;5069362;28;20254;-89
2022/05/03 10:37:28;;;;;;;9.03;8.63;;;;;;;12.72;60.96;92696.34;5071366;28;21807;-90
2022/05/03 10:40:06;;;;;;;8.10;7.80;;;;;;;13.48;56.25;92678.13;5072959;28;20248;-90
2022/05/03 10:42:32;;;;;;;8.43;8.03;;;;;;;13.60;56.84;92696.00;5053462;28;20241;-85
2022/05/03 10:45:06;;;;;;;8.27;7.97;;;;;;;14.07;56.59;92680.50;5056957;28;20197;-91
2022/05/03 10:47:54;;;;;;;7.70;7.40;;;;;;;14.67;55.72;92694.09;5072981;28;20233;-90
2022/05/03 10:50:21;;;;;;;8.00;7.60;;;;;;;15.40;51.97;92688.25;5066926;28;20284;-90
2022/05/03 10:52:58;;;;;;;8.77;8.30;;;;;;;15.74;50.32;92693.56;5072363;28;20225;-91
2022/05/03 10:55:25;;;;;;;8.33;7.93;;;;;;;15.96;48.62;92688.19;5076216;28;20193;-87
2022/05/03 10:58:25;;;;;;;8.10;7.80;;;;;;;15.65;49.65;92687.53;5072789;28;20217;-90
2022/05/03 11:01:20;;;;;;;10.07;9.53;;;;;;;15.29;51.79;92692.97;5069703;28;20193;-89
2022/05/03 11:03:48;;;;;;;9.27;8.87;;;;;;;14.85;51.12;92681.81;5063002;28;20229;-90
2022/05/03 11:06:21;;;;;;;7.80;7.50;;;;;;;14.36;54.26;92685.41;5052654;28;20234;-92
2022/05/03 11:09:09;;;;;;;7.70;7.40;;;;;;;14.70;49.66;92682.97;5068843;28;20186;-86
2022/05/03 11:11:43;;;;;;;9.13;8.63;;;;;;;14.43;51.14;92677.84;5066109;28;20245;-90
2022/05/03 11:14:21;;;;;;;9.30;8.80;;;;;;;14.52;53.33;92676.84;5071398;28;20210;-92
2022/05/03 11:17:05;;;;;;;8.63;8.23;;;;;;;14.46;51.28;92678.03;5062633;28;20237;-92
2022/05/03 11:19:32;;;;;;;8.37;8.07;;;;;;;14.38;49.52;92678.00;5070978;28;20189;-90
2022/05/03 11:21:58;;;;;;;8.03;7.73;;;;;;;13.78;55.54;92669.63;5080720;28;20260;-91
2022/05/03 11:24:27;;;;;;;8.33;7.93;;;;;;;14.34;52.29;92669.94;5070836;28;20446;-89
2022/05/03 11:27:01;;;;;;;8.40;7.73;;;;;;;14.45;52.04;92676.50;5066013;28;20222;-91
2022/05/03 11:29:31;;;;;;;8.83;8.40;;;;;;;14.28;50.50;92671.13;5052318;28;20236;-88
2022/05/03 11:31:59;;;;;;;8.23;7.90;;;;;;;14.46;51.05;92674.63;5054982;28;20734;-92
2022/05/03 11:34:26;;;;;;;9.23;8.73;;;;;;;13.90;55.76;92675.13;5068722;28;20231;-89
2022/05/03 11:36:52;;;;;;;8.87;8.47;;;;;;;14.64;53.80;92678.13;5057238;28;20225;-85
2022/05/03 11:39:18;;;;;;;9.20;8.80;;;;;;;14.39;54.59;92656.69;5068511;28;20242;-91
2022/05/03 11:41:45;;;;;;;8.83;8.43;;;;;;;13.74;54.59;92676.53;5066568;28;20241;-93
2022/05/03 11:44:11;;;;;;;10.17;9.60;;;;;;;14.64;53.42;92673.66;5072595;28;20192;-91
2022/05/03 11:46:38;;;;;;;9.10;8.70;;;;;;;15.00;49.81;92671.69;5067443;28;20225;-87
2022/05/03 11:49:08;;;;;;;9.13;8.73;;;;;;;15.20;50.00;92681.66;5071640;28;20189;-90
2022/05/03 11:57:24;;;;;;;8.40;7.77;;;;;;;13.98;52.53;92640.31;5069903;28;20237;-92
2022/05/03 11:59:52;;;;;;;9.33;8.93;;;;;;;13.59;52.99;92673.44;5071238;28;20201;-91
2022/05/03 12:02:22;;;;;;;8.57;8.13;;;;;;;13.25;54.66;92667.88;5051221;28;20252;-90
2022/05/03 12:04:59;;;;;;;8.97;8.63;;;;;;;12.89;52.55;92659.88;5038416;28;20258;-88
2022/05/03 12:07:25;;;;;;;8.83;8.47;;;;;;;12.61;56.20;92659.09;5055818;28;20390;-87
2022/05/03 12:09:50;;;;;;;7.97;7.67;;;;;;;12.33;59.83;92661.94;5071218;28;20217;-84
2022/05/03 12:15:22;;;;;;;8.80;8.50;;;;;;;11.06;66.09;92664.78;5073326;28;20193;-86
2022/05/03 12:17:54;;;;;;;8.67;8.27;;;;;;;11.04;67.29;92664.28;5058352;28;20229;-87
2022/05/03 12:20:21;;;;;;;8.77;8.37;;;;;;;11.01;66.43;92662.22;5070856;28;20219;-88
2022/05/03 12:23:17;;;;;;;9.20;8.77;;;;;;;11.02;68.11;92665.59;5063358;28;20229;-89
2022/05/03 12:25:44;;;;;;;8.90;8.50;;;;;;;10.95;67.43;92667.78;5070198;28;20260;-87